sensor_id;sensor_type;location;lat;lon;timestamp;P1;durP1;ratioP1;P2;durP2;ratioP2
11970;SDS011;6045;42.682;23.294;2023-07-31T00:01:39;2.45;;;2.25;;
11970;SDS011;6045;42.682;23.294;2023-07-31T00:04:05;2.20;;;2.00;;
11970;SDS011;6045;42.682;23.294;2023-07-31T00:06:32;2.03;;;1.90;;
11970;SDS011;6045;42.682;23.294;2023-07-31T00:08:59;2.03;;;1.83;;
11970;SDS011;6045;42.682;23.294;2023-07-31T00:11:27;3.05;;;2.53;;
11970;SDS011;6045;42.682;23.294;2023-07-31T00:13:54;3.33;;;2.08;;
11970;SDS011;6045;42.682;23.294;2023-07-31T00:16:21;2.85;;;2.08;;
11970;SDS011;6045;42.682;23.294;2023-07-31T00:18:48;3.10;;;2.00;;
11970;SDS011;6045;42.682;23.294;2023-07-31T00:21:14;2.38;;;2.17;;
11970;SDS011;6045;42.682;23.294;2023-07-31T00:23:41;3.25;;;2.25;;
11970;SDS011;6045;42.682;23.294;2023-07-31T00:26:08;3.55;;;2.80;;
11970;SDS011;6045;42.682;23.294;2023-07-31T00:28:36;2.83;;;2.53;;
11970;SDS011;6045;42.682;23.294;2023-07-31T00:31:03;3.03;;;2.40;;
11970;SDS011;6045;42.682;23.294;2023-07-31T00:33:30;3.38;;;2.53;;
11970;SDS011;6045;42.682;23.294;2023-07-31T00:35:57;2.97;;;2.58;;
11970;SDS011;6045;42.682;23.294;2023-07-31T00:38:24;2.95;;;2.60;;
11970;SDS011;6045;42.682;23.294;2023-07-31T00:40:51;2.40;;;2.20;;
11970;SDS011;6045;42.682;23.294;2023-07-31T00:43:17;2.92;;;2.63;;
11970;SDS011;6045;42.682;23.294;2023-07-31T00:45:45;2.65;;;2.45;;
11970;SDS011;6045;42.682;23.294;2023-07-31T00:48:12;3.65;;;3.20;;
11970;SDS011;6045;42.682;23.294;2023-07-31T00:50:39;4.25;;;3.38;;
11970;SDS011;6045;42.682;23.294;2023-07-31T00:53:06;4.05;;;2.97;;
11970;SDS011;6045;42.682;23.294;2023-07-31T00:55:33;3.80;;;3.28;;
11970;SDS011;6045;42.682;23.294;2023-07-31T00:58:00;4.20;;;3.50;;
11970;SDS011;6045;42.682;23.294;2023-07-31T01:00:26;4.72;;;3.50;;
11970;SDS011;6045;42.682;23.294;2023-07-31T01:02:54;4.00;;;3.67;;
11970;SDS011;6045;42.682;23.294;2023-07-31T01:05:24;5.15;;;4.65;;
11970;SDS011;6045;42.682;23.294;2023-07-31T01:07:56;5.38;;;4.22;;
11970;SDS011;6045;42.682;23.294;2023-07-31T01:10:34;5.85;;;4.03;;
11970;SDS011;6045;42.682;23.294;2023-07-31T01:13:09;5.63;;;4.65;;
11970;SDS011;6045;42.682;23.294;2023-07-31T01:15:37;5.78;;;4.82;;
11970;SDS011;6045;42.682;23.294;2023-07-31T01:18:05;7.43;;;5.10;;
11970;SDS011;6045;42.682;23.294;2023-07-31T01:20:32;5.65;;;4.97;;
11970;SDS011;6045;42.682;23.294;2023-07-31T01:26:03;5.90;;;4.88;;
11970;SDS011;6045;42.682;23.294;2023-07-31T01:28:37;8.55;;;5.85;;
11970;SDS011;6045;42.682;23.294;2023-07-31T01:31:14;8.15;;;6.50;;
11970;SDS011;6045;42.682;23.294;2023-07-31T01:33:44;8.82;;;6.70;;
11970;SDS011;6045;42.682;23.294;2023-07-31T01:36:12;8.00;;;6.68;;
11970;SDS011;6045;42.682;23.294;2023-07-31T01:38:39;9.50;;;7.13;;
11970;SDS011;6045;42.682;23.294;2023-07-31T01:41:07;9.00;;;6.82;;
11970;SDS011;6045;42.682;23.294;2023-07-31T01:43:34;10.35;;;8.70;;
11970;SDS011;6045;42.682;23.294;2023-07-31T01:46:01;11.00;;;8.15;;
11970;SDS011;6045;42.682;23.294;2023-07-31T01:48:28;12.90;;;9.10;;
11970;SDS011;6045;42.682;23.294;2023-07-31T01:51:00;12.30;;;8.25;;
11970;SDS011;6045;42.682;23.294;2023-07-31T01:53:27;10.43;;;8.23;;
11970;SDS011;6045;42.682;23.294;2023-07-31T01:55:54;12.55;;;9.63;;
11970;SDS011;6045;42.682;23.294;2023-07-31T01:58:22;12.85;;;9.20;;
11970;SDS011;6045;42.682;23.294;2023-07-31T02:00:49;13.32;;;9.93;;
11970;SDS011;6045;42.682;23.294;2023-07-31T02:03:16;12.73;;;9.20;;
11970;SDS011;6045;42.682;23.294;2023-07-31T02:05:46;15.30;;;9.77;;
11970;SDS011;6045;42.682;23.294;2023-07-31T02:08:12;12.93;;;10.13;;
11970;SDS011;6045;42.682;23.294;2023-07-31T02:10:39;14.02;;;9.30;;
11970;SDS011;6045;42.682;23.294;2023-07-31T02:13:06;12.70;;;8.52;;
11970;SDS011;6045;42.682;23.294;2023-07-31T02:15:35;11.20;;;8.80;;
11970;SDS011;6045;42.682;23.294;2023-07-31T02:18:01;14.57;;;9.15;;
11970;SDS011;6045;42.682;23.294;2023-07-31T02:20:28;15.15;;;9.52;;
11970;SDS011;6045;42.682;23.294;2023-07-31T02:22:55;11.23;;;9.10;;
11970;SDS011;6045;42.682;23.294;2023-07-31T02:25:22;16.30;;;10.77;;
11970;SDS011;6045;42.682;23.294;2023-07-31T02:27:48;13.60;;;8.88;;
11970;SDS011;6045;42.682;23.294;2023-07-31T02:30:15;12.52;;;8.93;;
11970;SDS011;6045;42.682;23.294;2023-07-31T02:32:43;15.38;;;10.50;;
11970;SDS011;6045;42.682;23.294;2023-07-31T02:35:10;14.20;;;10.60;;
11970;SDS011;6045;42.682;23.294;2023-07-31T02:37:40;12.52;;;9.95;;
11970;SDS011;6045;42.682;23.294;2023-07-31T02:40:07;13.25;;;10.25;;
11970;SDS011;6045;42.682;23.294;2023-07-31T02:42:34;12.77;;;9.35;;
11970;SDS011;6045;42.682;23.294;2023-07-31T02:45:01;12.57;;;9.70;;
11970;SDS011;6045;42.682;23.294;2023-07-31T02:47:28;10.63;;;8.73;;
11970;SDS011;6045;42.682;23.294;2023-07-31T02:49:56;12.70;;;9.68;;
11970;SDS011;6045;42.682;23.294;2023-07-31T02:52:23;13.20;;;9.35;;
11970;SDS011;6045;42.682;23.294;2023-07-31T02:54:49;12.85;;;10.15;;
11970;SDS011;6045;42.682;23.294;2023-07-31T02:57:16;12.57;;;9.60;;
11970;SDS011;6045;42.682;23.294;2023-07-31T02:59:43;14.20;;;9.85;;
11970;SDS011;6045;42.682;23.294;2023-07-31T03:02:10;13.50;;;9.93;;
11970;SDS011;6045;42.682;23.294;2023-07-31T03:04:37;14.02;;;9.55;;
11970;SDS011;6045;42.682;23.294;2023-07-31T03:07:05;14.00;;;8.48;;
11970;SDS011;6045;42.682;23.294;2023-07-31T03:09:32;15.45;;;10.07;;
11970;SDS011;6045;42.682;23.294;2023-07-31T03:11:59;14.38;;;9.30;;
11970;SDS011;6045;42.682;23.294;2023-07-31T03:14:28;11.63;;;9.25;;
11970;SDS011;6045;42.682;23.294;2023-07-31T03:16:55;14.15;;;9.95;;
11970;SDS011;6045;42.682;23.294;2023-07-31T03:19:21;13.98;;;10.07;;
11970;SDS011;6045;42.682;23.294;2023-07-31T03:21:48;12.63;;;9.00;;
11970;SDS011;6045;42.682;23.294;2023-07-31T03:24:17;12.88;;;9.38;;
11970;SDS011;6045;42.682;23.294;2023-07-31T03:26:43;12.95;;;9.63;;
11970;SDS011;6045;42.682;23.294;2023-07-31T03:29:10;14.73;;;10.77;;
11970;SDS011;6045;42.682;23.294;2023-07-31T03:31:38;13.68;;;10.25;;
11970;SDS011;6045;42.682;23.294;2023-07-31T03:34:05;15.35;;;10.82;;
11970;SDS011;6045;42.682;23.294;2023-07-31T03:36:35;14.35;;;10.93;;
11970;SDS011;6045;42.682;23.294;2023-07-31T03:39:02;15.05;;;10.35;;
11970;SDS011;6045;42.682;23.294;2023-07-31T03:41:30;15.30;;;10.93;;
11970;SDS011;6045;42.682;23.294;2023-07-31T03:43:57;14.55;;;10.52;;
11970;SDS011;6045;42.682;23.294;2023-07-31T03:46:23;15.43;;;10.48;;
11970;SDS011;6045;42.682;23.294;2023-07-31T03:48:50;18.13;;;10.48;;
11970;SDS011;6045;42.682;23.294;2023-07-31T03:51:17;14.35;;;10.02;;
11970;SDS011;6045;42.682;23.294;2023-07-31T03:53:44;15.43;;;10.35;;
11970;SDS011;6045;42.682;23.294;2023-07-31T03:56:11;16.65;;;10.65;;
11970;SDS011;6045;42.682;23.294;2023-07-31T03:58:39;13.30;;;10.57;;
11970;SDS011;6045;42.682;23.294;2023-07-31T04:01:06;18.27;;;11.38;;
11970;SDS011;6045;42.682;23.294;2023-07-31T04:03:33;16.23;;;10.43;;
11970;SDS011;6045;42.682;23.294;2023-07-31T04:05:59;17.67;;;10.13;;
11970;SDS011;6045;42.682;23.294;2023-07-31T04:08:26;15.50;;;10.63;;
11970;SDS011;6045;42.682;23.294;2023-07-31T04:10:53;19.23;;;11.07;;
11970;SDS011;6045;42.682;23.294;2023-07-31T04:13:21;17.88;;;10.90;;
11970;SDS011;6045;42.682;23.294;2023-07-31T04:15:49;18.08;;;11.80;;
11970;SDS011;6045;42.682;23.294;2023-07-31T04:18:16;15.27;;;10.90;;
11970;SDS011;6045;42.682;23.294;2023-07-31T04:20:43;17.20;;;10.48;;
11970;SDS011;6045;42.682;23.294;2023-07-31T04:23:10;17.10;;;11.18;;
11970;SDS011;6045;42.682;23.294;2023-07-31T04:25:40;15.05;;;10.32;;
11970;SDS011;6045;42.682;23.294;2023-07-31T04:28:06;15.52;;;10.52;;
11970;SDS011;6045;42.682;23.294;2023-07-31T04:30:33;18.23;;;11.65;;
11970;SDS011;6045;42.682;23.294;2023-07-31T04:33:02;15.98;;;10.73;;
11970;SDS011;6045;42.682;23.294;2023-07-31T04:35:29;16.83;;;11.48;;
11970;SDS011;6045;42.682;23.294;2023-07-31T04:38:10;18.33;;;11.55;;
11970;SDS011;6045;42.682;23.294;2023-07-31T04:40:36;16.13;;;11.38;;
11970;SDS011;6045;42.682;23.294;2023-07-31T04:43:03;16.58;;;12.25;;
11970;SDS011;6045;42.682;23.294;2023-07-31T04:45:30;16.77;;;11.48;;
11970;SDS011;6045;42.682;23.294;2023-07-31T04:47:58;15.32;;;10.55;;
11970;SDS011;6045;42.682;23.294;2023-07-31T04:50:26;18.48;;;10.80;;
11970;SDS011;6045;42.682;23.294;2023-07-31T04:52:55;17.67;;;10.65;;
11970;SDS011;6045;42.682;23.294;2023-07-31T04:55:23;14.07;;;9.70;;
11970;SDS011;6045;42.682;23.294;2023-07-31T04:57:50;15.27;;;10.45;;
11970;SDS011;6045;42.682;23.294;2023-07-31T05:00:17;15.77;;;11.00;;
11970;SDS011;6045;42.682;23.294;2023-07-31T05:02:43;19.45;;;11.45;;
11970;SDS011;6045;42.682;23.294;2023-07-31T05:05:10;14.55;;;10.68;;
11970;SDS011;6045;42.682;23.294;2023-07-31T05:07:38;14.50;;;10.68;;
11970;SDS011;6045;42.682;23.294;2023-07-31T05:10:05;15.52;;;10.55;;
11970;SDS011;6045;42.682;23.294;2023-07-31T05:12:33;14.93;;;10.02;;
11970;SDS011;6045;42.682;23.294;2023-07-31T05:15:00;15.98;;;10.38;;
11970;SDS011;6045;42.682;23.294;2023-07-31T05:17:26;13.73;;;9.88;;
11970;SDS011;6045;42.682;23.294;2023-07-31T05:19:53;12.07;;;8.98;;
11970;SDS011;6045;42.682;23.294;2023-07-31T05:22:20;14.77;;;10.02;;
11970;SDS011;6045;42.682;23.294;2023-07-31T05:24:48;14.93;;;10.93;;
11970;SDS011;6045;42.682;23.294;2023-07-31T05:27:15;13.93;;;9.35;;
11970;SDS011;6045;42.682;23.294;2023-07-31T05:29:43;13.85;;;8.77;;
11970;SDS011;6045;42.682;23.294;2023-07-31T05:32:10;11.55;;;8.10;;
11970;SDS011;6045;42.682;23.294;2023-07-31T05:34:37;12.05;;;8.77;;
11970;SDS011;6045;42.682;23.294;2023-07-31T05:37:04;10.73;;;8.20;;
11970;SDS011;6045;42.682;23.294;2023-07-31T05:39:32;9.10;;;7.35;;
11970;SDS011;6045;42.682;23.294;2023-07-31T05:42:00;9.73;;;7.75;;
11970;SDS011;6045;42.682;23.294;2023-07-31T05:44:27;9.63;;;7.50;;
11970;SDS011;6045;42.682;23.294;2023-07-31T05:46:53;8.57;;;6.68;;
11970;SDS011;6045;42.682;23.294;2023-07-31T05:49:20;7.45;;;6.45;;
11970;SDS011;6045;42.682;23.294;2023-07-31T05:51:47;8.05;;;6.38;;
11970;SDS011;6045;42.682;23.294;2023-07-31T05:54:16;10.25;;;6.63;;
11970;SDS011;6045;42.682;23.294;2023-07-31T05:56:42;9.05;;;6.80;;
11970;SDS011;6045;42.682;23.294;2023-07-31T05:59:11;7.75;;;5.78;;
11970;SDS011;6045;42.682;23.294;2023-07-31T06:01:39;7.97;;;5.95;;
11970;SDS011;6045;42.682;23.294;2023-07-31T06:04:05;6.45;;;4.93;;
11970;SDS011;6045;42.682;23.294;2023-07-31T06:06:32;7.40;;;4.80;;
11970;SDS011;6045;42.682;23.294;2023-07-31T06:08:59;4.55;;;4.15;;
11970;SDS011;6045;42.682;23.294;2023-07-31T06:11:26;3.85;;;3.38;;
11970;SDS011;6045;42.682;23.294;2023-07-31T06:13:53;4.20;;;3.63;;
11970;SDS011;6045;42.682;23.294;2023-07-31T06:16:22;5.10;;;4.10;;
11970;SDS011;6045;42.682;23.294;2023-07-31T06:18:49;3.50;;;2.92;;
11970;SDS011;6045;42.682;23.294;2023-07-31T06:21:16;3.55;;;2.95;;
11970;SDS011;6045;42.682;23.294;2023-07-31T06:23:43;5.00;;;3.47;;
11970;SDS011;6045;42.682;23.294;2023-07-31T06:26:10;5.10;;;3.28;;
11970;SDS011;6045;42.682;23.294;2023-07-31T06:28:36;4.30;;;3.30;;
11970;SDS011;6045;42.682;23.294;2023-07-31T06:31:03;6.65;;;3.05;;
11970;SDS011;6045;42.682;23.294;2023-07-31T06:33:31;4.05;;;3.58;;
11970;SDS011;6045;42.682;23.294;2023-07-31T06:35:58;3.80;;;3.30;;
11970;SDS011;6045;42.682;23.294;2023-07-31T06:38:25;3.25;;;2.97;;
11970;SDS011;6045;42.682;23.294;2023-07-31T06:40:53;4.10;;;3.33;;
11970;SDS011;6045;42.682;23.294;2023-07-31T06:43:20;4.05;;;3.03;;
11970;SDS011;6045;42.682;23.294;2023-07-31T06:45:46;3.45;;;2.67;;
11970;SDS011;6045;42.682;23.294;2023-07-31T06:48:15;3.75;;;3.20;;
11970;SDS011;6045;42.682;23.294;2023-07-31T06:50:43;4.10;;;2.78;;
11970;SDS011;6045;42.682;23.294;2023-07-31T06:53:10;3.33;;;2.88;;
11970;SDS011;6045;42.682;23.294;2023-07-31T06:55:39;4.82;;;2.90;;
11970;SDS011;6045;42.682;23.294;2023-07-31T06:58:06;3.22;;;2.45;;
11970;SDS011;6045;42.682;23.294;2023-07-31T07:00:33;2.72;;;2.40;;
11970;SDS011;6045;42.682;23.294;2023-07-31T07:03:00;7.07;;;2.53;;
11970;SDS011;6045;42.682;23.294;2023-07-31T07:05:26;3.38;;;2.88;;
11970;SDS011;6045;42.682;23.294;2023-07-31T07:07:55;3.42;;;2.53;;
11970;SDS011;6045;42.682;23.294;2023-07-31T07:10:21;3.00;;;2.60;;
11970;SDS011;6045;42.682;23.294;2023-07-31T07:12:48;6.22;;;2.58;;
11970;SDS011;6045;42.682;23.294;2023-07-31T07:15:15;4.68;;;2.65;;
11970;SDS011;6045;42.682;23.294;2023-07-31T07:17:42;4.00;;;3.00;;
11970;SDS011;6045;42.682;23.294;2023-07-31T07:20:09;3.63;;;2.30;;
11970;SDS011;6045;42.682;23.294;2023-07-31T07:22:35;3.60;;;2.42;;
11970;SDS011;6045;42.682;23.294;2023-07-31T07:25:04;4.15;;;2.03;;
11970;SDS011;6045;42.682;23.294;2023-07-31T07:27:32;5.00;;;2.33;;
11970;SDS011;6045;42.682;23.294;2023-07-31T07:29:59;2.90;;;2.17;;
11970;SDS011;6045;42.682;23.294;2023-07-31T07:32:26;3.63;;;2.45;;
11970;SDS011;6045;42.682;23.294;2023-07-31T07:34:53;2.50;;;2.30;;
11970;SDS011;6045;42.682;23.294;2023-07-31T07:37:21;2.20;;;2.05;;
11970;SDS011;6045;42.682;23.294;2023-07-31T07:39:48;2.47;;;2.28;;
11970;SDS011;6045;42.682;23.294;2023-07-31T07:42:16;3.78;;;2.38;;
11970;SDS011;6045;42.682;23.294;2023-07-31T07:44:43;2.58;;;2.38;;
11970;SDS011;6045;42.682;23.294;2023-07-31T07:47:09;3.42;;;2.17;;
11970;SDS011;6045;42.682;23.294;2023-07-31T07:49:36;2.33;;;2.13;;
11970;SDS011;6045;42.682;23.294;2023-07-31T07:52:03;2.97;;;2.67;;
11970;SDS011;6045;42.682;23.294;2023-07-31T07:54:31;3.83;;;2.20;;
11970;SDS011;6045;42.682;23.294;2023-07-31T07:56:58;4.38;;;2.05;;
11970;SDS011;6045;42.682;23.294;2023-07-31T07:59:26;2.53;;;2.05;;
11970;SDS011;6045;42.682;23.294;2023-07-31T08:01:53;2.33;;;2.00;;
11970;SDS011;6045;42.682;23.294;2023-07-31T08:04:20;3.58;;;2.30;;
11970;SDS011;6045;42.682;23.294;2023-07-31T08:06:46;2.63;;;2.10;;
11970;SDS011;6045;42.682;23.294;2023-07-31T08:09:13;2.20;;;2.00;;
11970;SDS011;6045;42.682;23.294;2023-07-31T08:11:40;5.45;;;2.20;;
11970;SDS011;6045;42.682;23.294;2023-07-31T08:14:07;2.42;;;2.22;;
11970;SDS011;6045;42.682;23.294;2023-07-31T08:16:35;3.25;;;2.95;;
11970;SDS011;6045;42.682;23.294;2023-07-31T08:19:02;2.90;;;2.22;;
11970;SDS011;6045;42.682;23.294;2023-07-31T08:21:29;2.15;;;1.92;;
11970;SDS011;6045;42.682;23.294;2023-07-31T08:23:56;2.13;;;1.63;;
11970;SDS011;6045;42.682;23.294;2023-07-31T08:26:22;2.75;;;2.30;;
11970;SDS011;6045;42.682;23.294;2023-07-31T08:28:49;2.90;;;2.25;;
11970;SDS011;6045;42.682;23.294;2023-07-31T08:31:16;3.47;;;3.10;;
11970;SDS011;6045;42.682;23.294;2023-07-31T08:33:44;2.58;;;2.10;;
11970;SDS011;6045;42.682;23.294;2023-07-31T08:36:11;2.53;;;2.00;;
11970;SDS011;6045;42.682;23.294;2023-07-31T08:38:38;2.25;;;2.05;;
11970;SDS011;6045;42.682;23.294;2023-07-31T08:41:05;4.07;;;2.10;;
11970;SDS011;6045;42.682;23.294;2023-07-31T08:43:32;3.22;;;2.20;;
11970;SDS011;6045;42.682;23.294;2023-07-31T08:45:59;2.75;;;2.30;;
11970;SDS011;6045;42.682;23.294;2023-07-31T08:48:28;2.30;;;2.10;;
11970;SDS011;6045;42.682;23.294;2023-07-31T08:50:58;3.17;;;2.22;;
11970;SDS011;6045;42.682;23.294;2023-07-31T08:53:25;2.38;;;2.00;;
11970;SDS011;6045;42.682;23.294;2023-07-31T08:55:54;3.35;;;1.88;;
11970;SDS011;6045;42.682;23.294;2023-07-31T08:58:22;1.80;;;1.70;;
11970;SDS011;6045;42.682;23.294;2023-07-31T09:00:51;1.90;;;1.75;;
11970;SDS011;6045;42.682;23.294;2023-07-31T09:03:21;2.28;;;1.83;;
11970;SDS011;6045;42.682;23.294;2023-07-31T09:05:50;2.72;;;1.92;;
11970;SDS011;6045;42.682;23.294;2023-07-31T09:08:20;2.22;;;2.00;;
11970;SDS011;6045;42.682;23.294;2023-07-31T09:10:47;4.35;;;2.83;;
11970;SDS011;6045;42.682;23.294;2023-07-31T09:13:15;2.05;;;1.83;;
11970;SDS011;6045;42.682;23.294;2023-07-31T09:15:43;2.65;;;2.42;;
11970;SDS011;6045;42.682;23.294;2023-07-31T09:18:11;2.55;;;2.20;;
11970;SDS011;6045;42.682;23.294;2023-07-31T09:20:39;3.03;;;2.10;;
11970;SDS011;6045;42.682;23.294;2023-07-31T09:23:06;2.53;;;2.05;;
11970;SDS011;6045;42.682;23.294;2023-07-31T09:25:36;2.80;;;2.40;;
11970;SDS011;6045;42.682;23.294;2023-07-31T09:28:05;3.55;;;2.03;;
11970;SDS011;6045;42.682;23.294;2023-07-31T09:30:44;2.35;;;2.13;;
11970;SDS011;6045;42.682;23.294;2023-07-31T09:33:13;2.78;;;2.45;;
11970;SDS011;6045;42.682;23.294;2023-07-31T09:35:39;3.78;;;2.33;;
11970;SDS011;6045;42.682;23.294;2023-07-31T09:38:09;3.03;;;2.45;;
11970;SDS011;6045;42.682;23.294;2023-07-31T09:40:39;2.42;;;2.22;;
11970;SDS011;6045;42.682;23.294;2023-07-31T09:43:07;3.80;;;2.60;;
11970;SDS011;6045;42.682;23.294;2023-07-31T09:45:37;3.05;;;2.05;;
11970;SDS011;6045;42.682;23.294;2023-07-31T09:48:06;2.58;;;2.38;;
11970;SDS011;6045;42.682;23.294;2023-07-31T09:50:34;3.05;;;2.00;;
11970;SDS011;6045;42.682;23.294;2023-07-31T09:53:03;3.78;;;2.28;;
11970;SDS011;6045;42.682;23.294;2023-07-31T09:55:30;2.55;;;2.03;;
11970;SDS011;6045;42.682;23.294;2023-07-31T09:57:59;1.65;;;1.55;;
11970;SDS011;6045;42.682;23.294;2023-07-31T10:00:30;3.35;;;1.73;;
11970;SDS011;6045;42.682;23.294;2023-07-31T10:02:58;3.08;;;2.05;;
11970;SDS011;6045;42.682;23.294;2023-07-31T10:05:26;1.90;;;1.70;;
11970;SDS011;6045;42.682;23.294;2023-07-31T10:07:57;2.10;;;1.50;;
11970;SDS011;6045;42.682;23.294;2023-07-31T10:10:24;2.53;;;1.50;;
11970;SDS011;6045;42.682;23.294;2023-07-31T10:12:52;2.33;;;2.00;;
11970;SDS011;6045;42.682;23.294;2023-07-31T10:15:21;3.53;;;1.70;;
11970;SDS011;6045;42.682;23.294;2023-07-31T10:17:49;2.22;;;1.65;;
11970;SDS011;6045;42.682;23.294;2023-07-31T10:20:16;1.48;;;1.38;;
11970;SDS011;6045;42.682;23.294;2023-07-31T10:22:43;2.67;;;1.90;;
11970;SDS011;6045;42.682;23.294;2023-07-31T10:25:12;3.10;;;1.80;;
11970;SDS011;6045;42.682;23.294;2023-07-31T10:27:39;2.03;;;1.70;;
11970;SDS011;6045;42.682;23.294;2023-07-31T10:30:07;1.70;;;1.60;;
11970;SDS011;6045;42.682;23.294;2023-07-31T10:32:37;1.55;;;1.45;;
11970;SDS011;6045;42.682;23.294;2023-07-31T10:35:07;1.50;;;1.40;;
11970;SDS011;6045;42.682;23.294;2023-07-31T10:37:38;1.42;;;1.33;;
11970;SDS011;6045;42.682;23.294;2023-07-31T10:40:09;2.25;;;1.95;;
11970;SDS011;6045;42.682;23.294;2023-07-31T10:42:37;3.42;;;1.98;;
11970;SDS011;6045;42.682;23.294;2023-07-31T10:45:12;1.80;;;1.70;;
11970;SDS011;6045;42.682;23.294;2023-07-31T10:47:43;2.35;;;1.83;;
11970;SDS011;6045;42.682;23.294;2023-07-31T10:50:18;1.77;;;1.55;;
11970;SDS011;6045;42.682;23.294;2023-07-31T10:52:49;1.58;;;1.30;;
11970;SDS011;6045;42.682;23.294;2023-07-31T10:55:27;1.63;;;1.52;;
11970;SDS011;6045;42.682;23.294;2023-07-31T10:57:56;1.52;;;1.42;;
11970;SDS011;6045;42.682;23.294;2023-07-31T11:00:25;1.50;;;1.40;;
11970;SDS011;6045;42.682;23.294;2023-07-31T11:02:59;2.15;;;1.48;;
11970;SDS011;6045;42.682;23.294;2023-07-31T11:05:43;1.40;;;1.30;;
11970;SDS011;6045;42.682;23.294;2023-07-31T11:08:12;2.00;;;1.50;;
11970;SDS011;6045;42.682;23.294;2023-07-31T11:10:39;1.55;;;1.30;;
11970;SDS011;6045;42.682;23.294;2023-07-31T11:13:06;1.65;;;1.55;;
11970;SDS011;6045;42.682;23.294;2023-07-31T11:15:33;2.20;;;1.60;;
11970;SDS011;6045;42.682;23.294;2023-07-31T11:18:01;1.45;;;1.35;;
11970;SDS011;6045;42.682;23.294;2023-07-31T11:20:30;1.48;;;1.38;;
11970;SDS011;6045;42.682;23.294;2023-07-31T11:22:58;1.52;;;1.42;;
11970;SDS011;6045;42.682;23.294;2023-07-31T11:25:26;1.80;;;1.50;;
11970;SDS011;6045;42.682;23.294;2023-07-31T11:27:55;1.90;;;1.48;;
11970;SDS011;6045;42.682;23.294;2023-07-31T11:30:22;1.60;;;1.13;;
11970;SDS011;6045;42.682;23.294;2023-07-31T11:32:49;1.27;;;1.17;;
11970;SDS011;6045;42.682;23.294;2023-07-31T11:35:17;1.88;;;1.58;;
11970;SDS011;6045;42.682;23.294;2023-07-31T11:37:44;2.00;;;1.60;;
11970;SDS011;6045;42.682;23.294;2023-07-31T11:40:11;2.17;;;1.83;;
11970;SDS011;6045;42.682;23.294;2023-07-31T11:42:38;2.38;;;1.52;;
11970;SDS011;6045;42.682;23.294;2023-07-31T11:45:05;2.10;;;1.85;;
11970;SDS011;6045;42.682;23.294;2023-07-31T11:47:34;2.08;;;1.88;;
11970;SDS011;6045;42.682;23.294;2023-07-31T11:50:02;2.03;;;1.83;;
11970;SDS011;6045;42.682;23.294;2023-07-31T11:52:33;1.90;;;1.73;;
11970;SDS011;6045;42.682;23.294;2023-07-31T11:55:08;2.00;;;1.80;;
11970;SDS011;6045;42.682;23.294;2023-07-31T11:57:37;3.63;;;2.20;;
11970;SDS011;6045;42.682;23.294;2023-07-31T12:00:06;2.03;;;1.73;;
11970;SDS011;6045;42.682;23.294;2023-07-31T12:02:36;2.15;;;1.88;;
11970;SDS011;6045;42.682;23.294;2023-07-31T12:05:04;2.50;;;2.28;;
11970;SDS011;6045;42.682;23.294;2023-07-31T12:07:44;2.80;;;2.47;;
11970;SDS011;6045;42.682;23.294;2023-07-31T12:10:11;2.65;;;2.45;;
11970;SDS011;6045;42.682;23.294;2023-07-31T12:12:55;2.58;;;2.38;;
11970;SDS011;6045;42.682;23.294;2023-07-31T12:15:29;3.15;;;2.45;;
11970;SDS011;6045;42.682;23.294;2023-07-31T12:17:59;2.70;;;2.50;;
11970;SDS011;6045;42.682;23.294;2023-07-31T12:20:26;3.67;;;3.38;;
11970;SDS011;6045;42.682;23.294;2023-07-31T12:22:57;4.53;;;3.75;;
11970;SDS011;6045;42.682;23.294;2023-07-31T12:25:28;4.30;;;3.42;;
11970;SDS011;6045;42.682;23.294;2023-07-31T12:27:55;3.70;;;3.25;;
11970;SDS011;6045;42.682;23.294;2023-07-31T12:30:28;3.58;;;3.10;;
11970;SDS011;6045;42.682;23.294;2023-07-31T12:32:56;3.50;;;2.95;;
11970;SDS011;6045;42.682;23.294;2023-07-31T12:35:22;3.17;;;2.58;;
11970;SDS011;6045;42.682;23.294;2023-07-31T12:37:49;3.15;;;2.80;;
11970;SDS011;6045;42.682;23.294;2023-07-31T12:40:17;4.07;;;2.40;;
11970;SDS011;6045;42.682;23.294;2023-07-31T12:42:44;2.95;;;2.65;;
11970;SDS011;6045;42.682;23.294;2023-07-31T12:45:11;3.38;;;2.92;;
11970;SDS011;6045;42.682;23.294;2023-07-31T12:47:38;3.85;;;2.78;;
11970;SDS011;6045;42.682;23.294;2023-07-31T12:50:05;3.78;;;2.75;;
11970;SDS011;6045;42.682;23.294;2023-07-31T12:52:33;3.45;;;2.97;;
11970;SDS011;6045;42.682;23.294;2023-07-31T12:55:00;3.83;;;3.03;;
11970;SDS011;6045;42.682;23.294;2023-07-31T12:57:28;4.05;;;3.30;;
11970;SDS011;6045;42.682;23.294;2023-07-31T12:59:54;3.88;;;3.08;;
11970;SDS011;6045;42.682;23.294;2023-07-31T13:02:21;3.53;;;3.10;;
11970;SDS011;6045;42.682;23.294;2023-07-31T13:04:49;3.92;;;3.40;;
11970;SDS011;6045;42.682;23.294;2023-07-31T13:07:16;5.45;;;4.25;;
11970;SDS011;6045;42.682;23.294;2023-07-31T13:09:43;5.05;;;3.55;;
11970;SDS011;6045;42.682;23.294;2023-07-31T13:12:12;4.63;;;3.97;;
11970;SDS011;6045;42.682;23.294;2023-07-31T13:14:40;5.65;;;4.35;;
11970;SDS011;6045;42.682;23.294;2023-07-31T13:17:06;5.30;;;3.28;;
11970;SDS011;6045;42.682;23.294;2023-07-31T13:19:33;4.97;;;3.53;;
11970;SDS011;6045;42.682;23.294;2023-07-31T13:22:00;6.00;;;4.03;;
11970;SDS011;6045;42.682;23.294;2023-07-31T13:24:27;3.50;;;3.20;;
11970;SDS011;6045;42.682;23.294;2023-07-31T13:26:54;3.45;;;3.15;;
11970;SDS011;6045;42.682;23.294;2023-07-31T13:29:21;3.63;;;2.78;;
11970;SDS011;6045;42.682;23.294;2023-07-31T13:31:51;3.40;;;3.00;;
11970;SDS011;6045;42.682;23.294;2023-07-31T13:34:19;3.45;;;2.90;;
11970;SDS011;6045;42.682;23.294;2023-07-31T13:36:45;3.47;;;2.85;;
11970;SDS011;6045;42.682;23.294;2023-07-31T13:39:12;3.58;;;2.70;;
11970;SDS011;6045;42.682;23.294;2023-07-31T13:41:39;3.50;;;3.10;;
11970;SDS011;6045;42.682;23.294;2023-07-31T13:44:06;3.72;;;3.08;;
11970;SDS011;6045;42.682;23.294;2023-07-31T13:46:33;3.90;;;3.13;;
11970;SDS011;6045;42.682;23.294;2023-07-31T13:49:01;4.30;;;3.08;;
11970;SDS011;6045;42.682;23.294;2023-07-31T13:51:28;3.50;;;3.20;;
11970;SDS011;6045;42.682;23.294;2023-07-31T13:53:55;4.47;;;3.10;;
11970;SDS011;6045;42.682;23.294;2023-07-31T13:56:21;3.75;;;3.20;;
11970;SDS011;6045;42.682;23.294;2023-07-31T13:58:48;3.33;;;2.75;;
11970;SDS011;6045;42.682;23.294;2023-07-31T14:01:15;6.78;;;2.60;;
11970;SDS011;6045;42.682;23.294;2023-07-31T14:03:42;4.00;;;2.95;;
11970;SDS011;6045;42.682;23.294;2023-07-31T14:06:10;3.10;;;2.65;;
11970;SDS011;6045;42.682;23.294;2023-07-31T14:08:37;3.50;;;2.67;;
11970;SDS011;6045;42.682;23.294;2023-07-31T14:11:04;4.57;;;2.85;;
11970;SDS011;6045;42.682;23.294;2023-07-31T14:13:31;3.03;;;2.58;;
11970;SDS011;6045;42.682;23.294;2023-07-31T14:15:58;3.00;;;2.70;;
11970;SDS011;6045;42.682;23.294;2023-07-31T14:18:25;2.65;;;2.45;;
11970;SDS011;6045;42.682;23.294;2023-07-31T14:20:51;3.10;;;2.80;;
11970;SDS011;6045;42.682;23.294;2023-07-31T14:23:20;4.10;;;2.50;;
11970;SDS011;6045;42.682;23.294;2023-07-31T14:25:46;2.83;;;2.63;;
11970;SDS011;6045;42.682;23.294;2023-07-31T14:28:13;3.83;;;3.20;;
11970;SDS011;6045;42.682;23.294;2023-07-31T14:30:40;3.63;;;2.95;;
11970;SDS011;6045;42.682;23.294;2023-07-31T14:33:07;3.47;;;2.85;;
11970;SDS011;6045;42.682;23.294;2023-07-31T14:35:33;3.70;;;3.30;;
11970;SDS011;6045;42.682;23.294;2023-07-31T14:38:01;3.35;;;2.30;;
11970;SDS011;6045;42.682;23.294;2023-07-31T14:40:29;4.78;;;2.60;;
11970;SDS011;6045;42.682;23.294;2023-07-31T14:42:56;2.70;;;2.28;;
11970;SDS011;6045;42.682;23.294;2023-07-31T14:45:23;3.63;;;2.65;;
11970;SDS011;6045;42.682;23.294;2023-07-31T14:47:49;6.38;;;2.92;;
11970;SDS011;6045;42.682;23.294;2023-07-31T14:50:16;2.75;;;2.55;;